createdAt,value
2022-10-18T00:02:08.351Z,74.74
2022-10-18T00:04:34.999Z,75.25
2022-10-18T00:07:01.564Z,75.93
2022-10-18T00:09:28.152Z,75.41
2022-10-18T00:11:55.693Z,75.14
2022-10-18T00:14:22.835Z,74.15
2022-10-18T00:16:49.466Z,73.97
2022-10-18T00:19:16.002Z,74.07
2022-10-18T00:24:14.354Z,73.38
2022-10-18T00:26:40.936Z,73.43
2022-10-18T00:29:07.494Z,72.31
2022-10-18T00:31:36.208Z,72.38
2022-10-18T00:34:06.174Z,72.37
2022-10-18T00:36:34.321Z,72.24
2022-10-18T00:39:02.491Z,72.02
2022-10-18T00:41:31.099Z,71.99
2022-10-18T00:44:07.342Z,71.24
2022-10-18T00:46:36.131Z,71.60
2022-10-18T00:49:06.645Z,71.23
2022-10-18T00:52:13.536Z,71.47
2022-10-18T00:54:42.097Z,71.62
2022-10-18T00:57:08.904Z,71.83
2022-10-18T00:59:36.007Z,71.68
2022-10-18T01:02:02.894Z,71.47
2022-10-18T01:04:29.448Z,71.29
2022-10-18T01:07:25.475Z,71.17
2022-10-18T01:10:13.966Z,70.22
2022-10-18T01:13:07.860Z,70.42
2022-10-18T01:15:57.511Z,70.11
2022-10-18T01:18:40.411Z,69.33
2022-10-18T01:21:23.089Z,69.88
2022-10-18T01:24:20.595Z,69.98
2022-10-18T01:27:08.610Z,69.40
2022-10-18T01:29:53.818Z,69.44
2022-10-18T01:32:27.184Z,69.37
2022-10-18T01:34:59.816Z,69.32
2022-10-18T01:37:28.171Z,69.05
2022-10-18T01:39:56.017Z,68.39
2022-10-18T01:42:22.451Z,68.02
2022-10-18T01:44:50.873Z,68.36
2022-10-18T01:47:18.359Z,68.15
2022-10-18T01:49:44.935Z,68.05
2022-10-18T01:52:15.865Z,67.88
2022-10-18T01:54:48.985Z,68.01
2022-10-18T01:57:21.471Z,67.95
2022-10-18T02:00:29.875Z,68.04
2022-10-18T02:03:06.988Z,67.99
2022-10-18T02:05:40.469Z,68.29
2022-10-18T02:08:26.362Z,67.94
2022-10-18T02:11:01.574Z,68.36
2022-10-18T02:13:33.645Z,68.41
2022-10-18T02:16:05.413Z,68.83
2022-10-18T02:18:55.983Z,69.26
2022-10-18T02:21:23.174Z,70.28
2022-10-18T02:23:50.204Z,70.11
2022-10-18T02:26:16.903Z,69.88
2022-10-18T02:28:43.994Z,70.93
2022-10-18T02:31:24.131Z,70.88
2022-10-18T02:33:52.794Z,70.27
2022-10-18T02:36:27.416Z,69.97
2022-10-18T02:38:58.821Z,70.15
2022-10-18T02:41:26.607Z,69.29
2022-10-18T02:43:53.132Z,69.96
2022-10-18T02:46:20.505Z,69.81
2022-10-18T02:48:47.121Z,70.27
2022-10-18T02:51:13.664Z,69.79
2022-10-18T02:53:40.317Z,69.31
2022-10-18T02:56:06.970Z,69.13
2022-10-18T02:58:33.455Z,68.75
2022-10-18T03:01:00.381Z,68.97
2022-10-18T03:03:26.954Z,68.51
2022-10-18T03:05:53.494Z,68.88
2022-10-18T03:08:20.120Z,69.54
2022-10-18T03:10:47.068Z,69.08
2022-10-18T03:13:13.941Z,68.77
2022-10-18T03:15:40.554Z,68.51
2022-10-18T03:18:07.129Z,68.79
2022-10-18T03:20:35.175Z,68.30
2022-10-18T03:23:03.236Z,67.99
2022-10-18T03:25:29.768Z,68.04
2022-10-18T03:27:56.319Z,67.71
2022-10-18T03:30:22.837Z,67.16
2022-10-18T03:32:49.372Z,68.40
2022-10-18T03:35:16.081Z,69.14
2022-10-18T03:37:42.679Z,68.70
2022-10-18T03:40:09.468Z,68.78
2022-10-18T03:42:36.203Z,69.28
2022-10-18T03:45:02.790Z,68.98
2022-10-18T03:47:29.303Z,69.36
2022-10-18T03:49:57.237Z,69.12
2022-10-18T03:52:24.361Z,69.36
2022-10-18T03:54:50.878Z,69.05
2022-10-18T03:57:17.406Z,68.74
2022-10-18T03:59:44.181Z,68.43
2022-10-18T04:02:10.785Z,68.67
2022-10-18T04:04:37.472Z,68.41
2022-10-18T04:07:04.074Z,69.10
2022-10-18T04:09:30.639Z,68.57
2022-10-18T04:11:57.166Z,68.79
2022-10-18T04:14:23.727Z,68.70
2022-10-18T04:16:50.334Z,68.80
2022-10-18T04:19:16.984Z,68.75
2022-10-18T04:21:43.492Z,68.98
2022-10-18T04:24:10.067Z,69.03
2022-10-18T04:26:36.653Z,69.31
2022-10-18T04:29:03.964Z,70.11
2022-10-18T04:31:30.802Z,70.47
2022-10-18T04:33:57.312Z,69.18
2022-10-18T04:36:23.800Z,68.91
2022-10-18T04:38:50.293Z,68.21
2022-10-18T04:41:16.813Z,68.15
2022-10-18T04:43:43.407Z,67.65
2022-10-18T04:46:10.007Z,67.67
2022-10-18T04:48:36.583Z,67.91
2022-10-18T04:51:03.270Z,66.92
2022-10-18T04:53:29.876Z,67.03
2022-10-18T04:55:56.455Z,67.16
2022-10-18T04:58:23.542Z,66.67
2022-10-18T05:00:50.365Z,66.74
2022-10-18T05:03:17.049Z,67.25
2022-10-18T05:06:00.927Z,67.21
2022-10-18T05:08:27.849Z,67.86
2022-10-18T05:10:54.556Z,67.82
2022-10-18T05:13:21.186Z,67.75
2022-10-18T05:15:47.776Z,67.79
2022-10-18T05:18:14.536Z,68.21
2022-10-18T05:20:41.055Z,68.12
2022-10-18T05:23:10.747Z,68.70
2022-10-18T05:25:41.210Z,67.98
2022-10-18T05:28:11.063Z,67.79
2022-10-18T05:30:47.821Z,67.44
2022-10-18T05:33:14.367Z,67.04
2022-10-18T05:35:40.840Z,67.09
2022-10-18T05:38:07.667Z,66.81
2022-10-18T05:40:34.253Z,66.70
2022-10-18T05:43:00.782Z,67.20
2022-10-18T05:45:27.412Z,67.07
2022-10-18T05:47:54.615Z,67.58
2022-10-18T05:50:21.139Z,67.00
2022-10-18T05:52:47.637Z,67.17
2022-10-18T05:55:14.257Z,67.08
2022-10-18T05:57:40.844Z,67.20
2022-10-18T06:00:08.097Z,67.29
2022-10-18T06:02:38.399Z,68.17
2022-10-18T06:05:05.166Z,68.20
2022-10-18T06:07:31.958Z,68.18
2022-10-18T06:09:58.686Z,68.23
2022-10-18T06:12:25.317Z,68.18
2022-10-18T06:14:51.896Z,68.03
2022-10-18T06:17:18.848Z,67.67
2022-10-18T06:19:45.593Z,67.36
2022-10-18T06:22:12.495Z,68.20
2022-10-18T06:24:38.987Z,68.43
2022-10-18T06:27:08.837Z,68.35
2022-10-18T06:29:36.226Z,68.48
2022-10-18T06:32:03.353Z,68.23
2022-10-18T06:34:29.896Z,68.20
2022-10-18T06:36:58.655Z,67.99
2022-10-18T06:39:25.864Z,67.24
2022-10-18T06:41:52.516Z,67.87
2022-10-18T06:44:20.353Z,68.34
2022-10-18T06:46:48.093Z,68.79
2022-10-18T06:49:18.228Z,68.18
2022-10-18T06:51:46.140Z,68.73
2022-10-18T06:54:18.188Z,67.77
2022-10-18T06:56:45.150Z,67.04
2022-10-18T06:59:11.720Z,65.88
2022-10-18T07:01:38.455Z,66.39
2022-10-18T07:04:05.112Z,65.67
2022-10-18T07:06:31.601Z,65.45
2022-10-18T07:08:58.271Z,65.36
2022-10-18T07:11:26.742Z,64.66
2022-10-18T07:13:54.488Z,64.82
2022-10-18T07:16:21.371Z,64.64
2022-10-18T07:18:50.446Z,64.87
2022-10-18T07:21:19.376Z,64.56
2022-10-18T07:23:46.359Z,64.60
2022-10-18T07:26:20.018Z,64.38
2022-10-18T07:28:49.960Z,63.96
2022-10-18T07:31:16.599Z,64.13
2022-10-18T07:33:43.156Z,64.10
2022-10-18T07:36:11.045Z,64.37
2022-10-18T07:38:37.709Z,64.39
2022-10-18T07:41:06.802Z,64.19
2022-10-18T07:43:33.867Z,63.72
2022-10-18T07:46:02.850Z,63.78
2022-10-18T07:48:29.823Z,63.56
2022-10-18T07:51:00.625Z,63.31
2022-10-18T07:53:29.127Z,62.57
2022-10-18T07:56:01.341Z,62.56
2022-10-18T07:58:31.784Z,62.59
2022-10-18T08:01:02.370Z,62.74
2022-10-18T08:03:28.933Z,62.89
2022-10-18T08:05:55.567Z,62.73
2022-10-18T08:08:23.819Z,62.02
2022-10-18T08:10:50.910Z,62.34
2022-10-18T08:13:17.811Z,61.73
2022-10-18T08:15:44.562Z,61.31
2022-10-18T08:18:11.478Z,62.05
2022-10-18T08:20:42.730Z,61.96
2022-10-18T08:23:09.436Z,62.44
2022-10-18T08:28:07.564Z,61.29
2022-10-18T08:30:35.454Z,62.28
2022-10-18T08:33:02.824Z,61.68
2022-10-18T08:35:29.430Z,60.74
2022-10-18T08:37:55.949Z,60.67
2022-10-18T08:40:22.669Z,60.03
2022-10-18T08:43:22.029Z,58.77
2022-10-18T08:45:49.697Z,58.90
2022-10-18T08:48:39.053Z,59.08
2022-10-18T08:51:27.274Z,59.17
2022-10-18T08:54:11.388Z,59.63
2022-10-18T08:56:39.541Z,58.32
2022-10-18T08:59:10.357Z,57.70
2022-10-18T09:02:01.583Z,57.73
2022-10-18T09:05:07.103Z,57.20
2022-10-18T09:08:23.257Z,56.50
2022-10-18T09:11:06.111Z,57.05
2022-10-18T09:13:59.751Z,56.66
2022-10-18T09:16:40.411Z,55.65
2022-10-18T09:19:46.087Z,55.64
2022-10-18T09:22:14.423Z,57.15
2022-10-18T09:24:46.641Z,58.54
2022-10-18T09:27:18.887Z,59.67
2022-10-18T09:29:49.059Z,58.82
2022-10-18T09:32:25.420Z,57.19
2022-10-18T09:34:55.587Z,56.95
2022-10-18T09:37:22.338Z,56.32
2022-10-18T09:39:50.736Z,56.48
2022-10-18T09:42:36.051Z,57.13
2022-10-18T09:45:08.552Z,58.46
2022-10-18T09:47:39.451Z,58.43
2022-10-18T09:50:18.049Z,58.96
2022-10-18T09:52:53.441Z,58.07
2022-10-18T09:55:23.240Z,57.65
2022-10-18T09:57:56.476Z,57.37
2022-10-18T10:00:29.058Z,56.83
2022-10-18T10:02:56.176Z,57.17
2022-10-18T10:05:22.736Z,57.97
2022-10-18T10:07:49.376Z,58.43
2022-10-18T10:10:24.014Z,59.00
2022-10-18T10:13:05.896Z,58.66
2022-10-18T10:15:37.081Z,59.32
2022-10-18T10:18:19.242Z,59.98
2022-10-18T10:20:49.017Z,60.63
2022-10-18T10:23:30.747Z,60.80
2022-10-18T10:26:25.332Z,59.66
2022-10-18T10:28:52.197Z,59.77
2022-10-18T10:31:24.745Z,60.10
2022-10-18T10:34:18.485Z,58.94
2022-10-18T10:36:53.199Z,59.23
2022-10-18T10:39:22.331Z,59.13
2022-10-18T10:41:57.374Z,59.52
2022-10-18T10:44:29.610Z,59.80
2022-10-18T10:46:56.739Z,58.61
2022-10-18T10:49:45.767Z,59.60
2022-10-18T10:52:28.553Z,60.29
2022-10-18T10:57:48.725Z,58.71
2022-10-18T11:00:34.169Z,59.33
2022-10-18T11:03:33.749Z,58.47
2022-10-18T11:06:01.698Z,58.17
2022-10-18T11:08:41.133Z,59.01
2022-10-18T11:11:22.852Z,58.03
2022-10-18T11:14:13.257Z,60.49
2022-10-18T11:17:08.076Z,60.19
2022-10-18T11:19:43.005Z,59.13
2022-10-18T11:22:14.277Z,57.77
2022-10-18T11:24:41.419Z,58.11
2022-10-18T11:27:19.447Z,57.54
2022-10-18T11:30:01.510Z,56.86
2022-10-18T11:32:38.461Z,57.41
2022-10-18T11:35:43.481Z,55.39
2022-10-18T11:38:15.806Z,55.02
2022-10-18T11:41:22.528Z,56.74
2022-10-18T11:44:03.100Z,53.79
2022-10-18T11:46:54.841Z,53.49
2022-10-18T11:49:39.133Z,53.59
2022-10-18T11:52:14.022Z,52.95
2022-10-18T11:55:01.962Z,52.92
2022-10-18T11:57:50.409Z,53.06
2022-10-18T12:00:39.362Z,53.36
2022-10-18T12:03:24.340Z,55.28
2022-10-18T12:05:53.211Z,54.77
2022-10-18T12:08:31.509Z,54.84
2022-10-18T12:11:05.920Z,54.58
2022-10-18T12:13:52.364Z,56.65
2022-10-18T12:16:33.790Z,55.84
2022-10-18T12:19:12.541Z,57.28
2022-10-18T12:21:39.360Z,56.25
2022-10-18T12:24:13.595Z,56.20
2022-10-18T12:26:40.288Z,57.44
2022-10-18T12:29:18.384Z,55.96
2022-10-18T12:31:53.798Z,55.82
2022-10-18T12:34:23.838Z,56.55
2022-10-18T12:36:53.299Z,56.97
2022-10-18T12:39:45.089Z,57.31
2022-10-18T12:42:19.157Z,57.66
2022-10-18T12:44:46.476Z,57.62
2022-10-18T12:47:24.711Z,56.51
2022-10-18T12:50:01.975Z,56.93
2022-10-18T12:52:30.605Z,57.41
2022-10-18T12:55:18.285Z,57.34
2022-10-18T12:57:53.996Z,57.99
2022-10-18T13:00:29.705Z,57.99
2022-10-18T13:03:17.908Z,57.08
2022-10-18T13:05:55.933Z,57.85
2022-10-18T13:08:29.038Z,57.07
2022-10-18T13:11:01.394Z,58.30
2022-10-18T13:13:54.725Z,57.49
2022-10-18T13:17:00.607Z,57.48
2022-10-18T13:19:30.107Z,59.49
2022-10-18T13:22:30.548Z,58.02
2022-10-18T13:25:15.812Z,57.82
2022-10-18T13:27:56.273Z,56.65
2022-10-18T13:30:33.396Z,57.29
2022-10-18T13:33:34.821Z,56.92
2022-10-18T13:36:03.991Z,56.08
2022-10-18T13:38:57.824Z,56.00
2022-10-18T13:41:32.769Z,55.62
2022-10-18T13:44:30.669Z,56.39
2022-10-18T13:46:57.155Z,55.96
2022-10-18T13:49:40.204Z,56.47
2022-10-18T13:52:28.435Z,56.46
2022-10-18T13:55:19.320Z,56.74
2022-10-18T13:57:57.928Z,57.78
2022-10-18T14:00:49.133Z,58.25
2022-10-18T14:03:58.870Z,58.51
2022-10-18T14:06:33.531Z,58.98
2022-10-18T14:09:26.229Z,58.96
2022-10-18T14:12:33.526Z,59.13
2022-10-18T14:15:16.580Z,59.88
2022-10-18T14:17:51.931Z,58.93
2022-10-18T14:20:34.449Z,59.65
2022-10-18T14:23:12.927Z,59.71
2022-10-18T14:25:39.516Z,59.40
2022-10-18T14:28:12.321Z,58.73
2022-10-18T14:30:59.377Z,58.91
2022-10-18T14:33:41.130Z,56.95
2022-10-18T14:36:19.677Z,57.37
2022-10-18T14:38:57.696Z,56.95
2022-10-18T14:41:29.607Z,57.41
2022-10-18T14:44:14.707Z,57.11
2022-10-18T14:47:04.470Z,57.71
2022-10-18T14:49:31.482Z,57.05
2022-10-18T14:51:59.556Z,56.83
2022-10-18T14:54:34.425Z,57.36
2022-10-18T14:57:05.575Z,57.20
2022-10-18T15:00:06.569Z,58.16
2022-10-18T15:02:36.472Z,58.45
2022-10-18T15:05:09.356Z,59.24
2022-10-18T15:07:36.025Z,59.46
2022-10-18T15:10:07.850Z,59.53
2022-10-18T15:12:57.755Z,60.48
2022-10-18T15:15:33.506Z,59.98
2022-10-18T15:18:00.502Z,59.84
2022-10-18T15:20:32.647Z,59.68
2022-10-18T15:23:27.471Z,60.78
2022-10-18T15:26:02.448Z,61.18
2022-10-18T15:28:52.236Z,60.70
2022-10-18T15:31:24.549Z,60.14
2022-10-18T15:33:51.688Z,60.23
2022-10-18T15:36:29.717Z,60.96
2022-10-18T15:39:07.580Z,60.52
2022-10-18T15:41:46.128Z,60.01
2022-10-18T15:44:42.426Z,59.61
2022-10-18T15:47:12.502Z,60.23
2022-10-18T15:49:45.061Z,60.19
2022-10-18T15:52:35.190Z,60.42
2022-10-18T15:55:34.689Z,60.51
2022-10-18T15:58:06.405Z,60.35
2022-10-18T16:00:43.285Z,61.06
2022-10-18T16:03:14.690Z,61.30
2022-10-18T16:05:46.546Z,60.79
2022-10-18T16:08:49.391Z,61.74
2022-10-18T16:11:25.697Z,61.80
2022-10-18T16:13:55.215Z,62.32
2022-10-18T16:16:26.782Z,61.41
2022-10-18T16:18:53.611Z,61.75
2022-10-18T16:21:28.291Z,61.44
2022-10-18T16:23:55.084Z,61.21
2022-10-18T16:26:22.599Z,61.88
2022-10-18T16:28:50.229Z,60.69
2022-10-18T16:31:22.219Z,61.75
2022-10-18T16:33:50.829Z,61.97
2022-10-18T16:36:19.366Z,61.30
2022-10-18T16:38:46.386Z,60.18
2022-10-18T16:41:15.907Z,60.21
2022-10-18T16:43:44.507Z,60.10
2022-10-18T16:46:19.660Z,61.18
2022-10-18T16:48:46.826Z,61.15
2022-10-18T16:51:14.673Z,60.99
2022-10-18T16:53:41.772Z,60.52
2022-10-18T16:56:17.024Z,60.77
2022-10-18T16:58:43.950Z,61.86
2022-10-18T17:01:16.365Z,62.04
2022-10-18T17:03:43.637Z,61.98
2022-10-18T17:06:17.751Z,62.25
2022-10-18T17:08:44.473Z,62.51
2022-10-18T17:11:12.430Z,62.52
2022-10-18T17:13:40.057Z,62.47
2022-10-18T17:16:06.860Z,62.10
2022-10-18T17:18:33.526Z,62.99
2022-10-18T17:21:03.046Z,63.59
2022-10-18T17:23:30.387Z,62.27
2022-10-18T17:26:05.356Z,62.83
2022-10-18T17:28:34.230Z,62.66
2022-10-18T17:31:00.919Z,62.62
2022-10-18T17:33:27.483Z,62.41
2022-10-18T17:35:54.076Z,62.73
2022-10-18T17:38:20.680Z,62.67
2022-10-18T17:40:47.628Z,62.72
2022-10-18T17:43:14.368Z,62.88
2022-10-18T17:45:54.662Z,63.63
2022-10-18T17:48:22.822Z,63.40
2022-10-18T17:50:49.378Z,63.43
2022-10-18T17:53:18.328Z,62.86
2022-10-18T17:55:45.045Z,63.76
2022-10-18T17:58:12.040Z,63.36
2022-10-18T18:00:38.772Z,63.78
2022-10-18T18:03:05.511Z,63.69
2022-10-18T18:05:34.044Z,63.89
2022-10-18T18:08:03.846Z,64.44
2022-10-18T18:10:33.370Z,64.19
2022-10-18T18:13:00.423Z,64.00
2022-10-18T18:15:27.098Z,64.21
2022-10-18T18:17:57.409Z,63.91
2022-10-18T18:20:26.456Z,63.80
2022-10-18T18:22:54.914Z,63.59
2022-10-18T18:25:21.576Z,63.85
2022-10-18T18:27:48.307Z,64.16
2022-10-18T18:30:17.638Z,64.47
2022-10-18T18:32:44.406Z,64.47
2022-10-18T18:35:11.081Z,64.49
2022-10-18T18:37:37.870Z,64.73
2022-10-18T18:40:04.760Z,65.09
2022-10-18T18:42:32.264Z,64.98
2022-10-18T18:44:58.911Z,64.88
2022-10-18T18:47:27.046Z,65.06
2022-10-18T18:49:53.971Z,65.31
2022-10-18T18:52:20.530Z,65.73
2022-10-18T18:54:47.019Z,65.70
2022-10-18T18:57:13.604Z,65.71
2022-10-18T18:59:40.139Z,65.50
2022-10-18T19:02:06.721Z,67.94
2022-10-18T19:04:34.945Z,68.27
2022-10-18T19:07:02.545Z,67.49
2022-10-18T19:09:29.195Z,66.74
2022-10-18T19:11:56.538Z,66.40
2022-10-18T19:14:25.406Z,66.27
2022-10-18T19:16:53.916Z,65.81
2022-10-18T19:19:22.644Z,66.15
2022-10-18T19:22:00.684Z,66.03
2022-10-18T19:24:28.652Z,66.08
2022-10-18T19:27:00.828Z,66.30
2022-10-18T19:29:28.586Z,66.42
2022-10-18T19:31:57.339Z,66.87
2022-10-18T19:34:26.272Z,66.70
2022-10-18T19:36:52.886Z,66.71
2022-10-18T19:39:21.934Z,66.68
2022-10-18T19:41:50.994Z,66.70
2022-10-18T19:44:18.936Z,66.78
2022-10-18T19:46:45.634Z,67.01
2022-10-18T19:49:12.185Z,66.84
2022-10-18T19:51:38.784Z,66.82
2022-10-18T19:54:05.632Z,66.75
2022-10-18T19:56:32.212Z,67.09
2022-10-18T19:58:59.359Z,66.90
2022-10-18T20:01:27.998Z,66.91
2022-10-18T20:03:54.720Z,67.59
2022-10-18T20:06:21.631Z,67.96
2022-10-18T20:08:48.814Z,68.36
2022-10-18T20:11:17.755Z,67.71
2022-10-18T20:13:44.428Z,67.51
2022-10-18T20:16:12.650Z,67.33
2022-10-18T20:18:39.278Z,67.95
2022-10-18T20:21:07.116Z,67.90
2022-10-18T20:23:37.974Z,67.87
2022-10-18T20:26:10.733Z,67.68
2022-10-18T20:28:38.231Z,67.61
2022-10-18T20:31:07.390Z,68.02
2022-10-18T20:33:34.856Z,69.36
2022-10-18T20:36:09.893Z,70.70
2022-10-18T20:38:38.625Z,70.16
2022-10-18T20:41:16.911Z,70.38
2022-10-18T20:43:44.215Z,69.64
2022-10-18T20:46:10.954Z,69.33
2022-10-18T20:48:38.802Z,68.44
2022-10-18T20:51:12.684Z,68.82
2022-10-18T20:53:39.900Z,69.08
2022-10-18T20:56:14.596Z,68.65
2022-10-18T20:58:42.829Z,68.67
2022-10-18T21:01:30.820Z,68.82
2022-10-18T21:04:00.251Z,68.57
2022-10-18T21:06:28.829Z,68.36
2022-10-18T21:09:00.141Z,68.58
2022-10-18T21:11:28.244Z,68.45
2022-10-18T21:13:57.476Z,68.62
2022-10-18T21:16:24.235Z,68.67
2022-10-18T21:18:51.039Z,68.77
2022-10-18T21:21:24.691Z,69.09
2022-10-18T21:23:52.240Z,68.73
2022-10-18T21:26:23.570Z,70.56
2022-10-18T21:28:51.229Z,70.35
2022-10-18T21:31:20.557Z,69.70
2022-10-18T21:33:48.106Z,70.20
2022-10-18T21:36:14.891Z,69.74
2022-10-18T21:38:44.688Z,69.30
2022-10-18T21:41:13.315Z,69.49
2022-10-18T21:43:41.880Z,70.01
2022-10-18T21:46:10.043Z,69.91
2022-10-18T21:48:37.048Z,69.61
2022-10-18T21:51:07.865Z,69.48
2022-10-18T21:53:34.683Z,69.23
2022-10-18T21:56:09.803Z,69.00
2022-10-18T21:58:37.169Z,69.07
2022-10-18T22:01:09.397Z,68.85
2022-10-18T22:03:36.253Z,69.03
2022-10-18T22:06:09.521Z,68.76
2022-10-18T22:08:36.256Z,68.72
2022-10-18T22:11:03.162Z,69.26
2022-10-18T22:13:29.797Z,68.94
2022-10-18T22:15:56.450Z,68.64
2022-10-18T22:18:23.061Z,69.01
2022-10-18T22:21:00.558Z,69.02
2022-10-18T22:23:43.680Z,68.95
2022-10-18T22:26:23.271Z,69.32
2022-10-18T22:29:00.823Z,72.01
2022-10-18T22:31:29.870Z,70.85
2022-10-18T22:33:58.854Z,70.57
2022-10-18T22:36:26.334Z,71.05
2022-10-18T22:38:53.023Z,71.25
2022-10-18T22:41:20.080Z,73.20
2022-10-18T22:43:48.311Z,73.86
2022-10-18T22:46:15.422Z,73.81
2022-10-18T22:48:42.439Z,73.67
2022-10-18T22:51:09.673Z,73.30
2022-10-18T22:53:37.055Z,73.31
2022-10-18T22:56:04.272Z,73.47
2022-10-18T22:58:30.877Z,72.02
2022-10-18T23:01:05.708Z,71.95
2022-10-18T23:03:32.696Z,72.28
2022-10-18T23:05:59.619Z,72.73
2022-10-18T23:08:26.667Z,72.28
2022-10-18T23:10:55.552Z,71.77
2022-10-18T23:13:23.616Z,70.92
2022-10-18T23:15:50.483Z,70.43
2022-10-18T23:18:17.685Z,70.09
2022-10-18T23:20:44.803Z,70.07
2022-10-18T23:23:12.645Z,69.96
2022-10-18T23:25:39.407Z,69.46
2022-10-18T23:28:06.388Z,69.69
2022-10-18T23:30:33.772Z,69.81
2022-10-18T23:33:00.278Z,69.56
2022-10-18T23:35:29.309Z,69.63
2022-10-18T23:37:56.359Z,69.74
2022-10-18T23:40:22.851Z,70.31
2022-10-18T23:42:49.423Z,70.12
2022-10-18T23:45:16.025Z,70.13
2022-10-18T23:47:42.623Z,70.15
2022-10-18T23:50:09.831Z,69.81
2022-10-18T23:52:36.392Z,69.69
2022-10-18T23:55:03.007Z,69.68
2022-10-18T23:57:29.629Z,70.22
2022-10-18T23:59:56.266Z,70.01
